sensor_id;sensor_type;location;lat;lon;timestamp;P1;durP1;ratioP1;P2;durP2;ratioP2
6422;SDS011;3244;42.708;23.288;2023-04-03T00:00:40;3.20;;;3.00;;
6422;SDS011;3244;42.708;23.288;2023-04-03T00:03:07;4.20;;;2.47;;
6422;SDS011;3244;42.708;23.288;2023-04-03T00:05:35;3.53;;;3.00;;
6422;SDS011;3244;42.708;23.288;2023-04-03T00:08:02;2.70;;;2.50;;
6422;SDS011;3244;42.708;23.288;2023-04-03T00:10:32;3.20;;;2.90;;
6422;SDS011;3244;42.708;23.288;2023-04-03T00:12:59;3.60;;;2.90;;
6422;SDS011;3244;42.708;23.288;2023-04-03T00:15:26;2.70;;;2.40;;
6422;SDS011;3244;42.708;23.288;2023-04-03T00:17:53;2.50;;;1.92;;
6422;SDS011;3244;42.708;23.288;2023-04-03T00:20:19;2.53;;;2.33;;
6422;SDS011;3244;42.708;23.288;2023-04-03T00:22:48;3.65;;;2.75;;
6422;SDS011;3244;42.708;23.288;2023-04-03T00:25:15;2.92;;;2.40;;
6422;SDS011;3244;42.708;23.288;2023-04-03T00:27:42;8.00;;;3.03;;
6422;SDS011;3244;42.708;23.288;2023-04-03T00:30:09;3.90;;;2.80;;
6422;SDS011;3244;42.708;23.288;2023-04-03T00:32:40;2.60;;;2.40;;
6422;SDS011;3244;42.708;23.288;2023-04-03T00:35:07;2.38;;;2.13;;
6422;SDS011;3244;42.708;23.288;2023-04-03T00:37:35;2.42;;;2.20;;
6422;SDS011;3244;42.708;23.288;2023-04-03T00:40:04;4.63;;;2.65;;
6422;SDS011;3244;42.708;23.288;2023-04-03T00:42:32;2.72;;;2.47;;
6422;SDS011;3244;42.708;23.288;2023-04-03T00:47:59;3.40;;;2.65;;
6422;SDS011;3244;42.708;23.288;2023-04-03T00:50:28;2.47;;;2.28;;
6422;SDS011;3244;42.708;23.288;2023-04-03T00:52:56;3.15;;;2.65;;
6422;SDS011;3244;42.708;23.288;2023-04-03T00:55:26;4.45;;;2.60;;
6422;SDS011;3244;42.708;23.288;2023-04-03T00:57:53;3.83;;;2.40;;
6422;SDS011;3244;42.708;23.288;2023-04-03T01:00:22;3.88;;;3.00;;
6422;SDS011;3244;42.708;23.288;2023-04-03T01:02:50;3.58;;;2.90;;
6422;SDS011;3244;42.708;23.288;2023-04-03T01:05:17;4.07;;;2.90;;
6422;SDS011;3244;42.708;23.288;2023-04-03T01:07:47;5.25;;;3.13;;
6422;SDS011;3244;42.708;23.288;2023-04-03T01:10:16;3.17;;;2.67;;
6422;SDS011;3244;42.708;23.288;2023-04-03T01:12:47;3.20;;;2.90;;
6422;SDS011;3244;42.708;23.288;2023-04-03T01:15:16;4.18;;;2.30;;
6422;SDS011;3244;42.708;23.288;2023-04-03T01:17:46;2.80;;;2.05;;
6422;SDS011;3244;42.708;23.288;2023-04-03T01:23:12;3.25;;;2.63;;
6422;SDS011;3244;42.708;23.288;2023-04-03T01:25:52;3.72;;;3.38;;
6422;SDS011;3244;42.708;23.288;2023-04-03T01:28:23;2.83;;;2.63;;
6422;SDS011;3244;42.708;23.288;2023-04-03T01:30:53;5.43;;;3.30;;
6422;SDS011;3244;42.708;23.288;2023-04-03T01:33:28;3.92;;;3.63;;
6422;SDS011;3244;42.708;23.288;2023-04-03T01:35:55;4.90;;;3.92;;
6422;SDS011;3244;42.708;23.288;2023-04-03T01:38:22;4.68;;;3.92;;
6422;SDS011;3244;42.708;23.288;2023-04-03T01:40:48;8.48;;;4.55;;
6422;SDS011;3244;42.708;23.288;2023-04-03T01:43:15;4.45;;;4.05;;
6422;SDS011;3244;42.708;23.288;2023-04-03T01:45:42;4.07;;;3.75;;
6422;SDS011;3244;42.708;23.288;2023-04-03T01:48:09;4.32;;;3.92;;
6422;SDS011;3244;42.708;23.288;2023-04-03T01:50:37;4.68;;;3.75;;
6422;SDS011;3244;42.708;23.288;2023-04-03T01:53:04;3.88;;;3.55;;
6422;SDS011;3244;42.708;23.288;2023-04-03T01:55:30;4.38;;;3.90;;
6422;SDS011;3244;42.708;23.288;2023-04-03T01:57:57;4.55;;;3.50;;
6422;SDS011;3244;42.708;23.288;2023-04-03T02:00:24;4.07;;;2.95;;
6422;SDS011;3244;42.708;23.288;2023-04-03T02:02:51;5.57;;;3.17;;
6422;SDS011;3244;42.708;23.288;2023-04-03T02:05:18;4.85;;;3.45;;
6422;SDS011;3244;42.708;23.288;2023-04-03T02:07:46;5.70;;;3.15;;
6422;SDS011;3244;42.708;23.288;2023-04-03T02:10:13;11.35;;;3.42;;
6422;SDS011;3244;42.708;23.288;2023-04-03T02:12:40;4.10;;;2.95;;
6422;SDS011;3244;42.708;23.288;2023-04-03T02:15:07;6.25;;;3.03;;
6422;SDS011;3244;42.708;23.288;2023-04-03T02:17:34;5.40;;;3.08;;
6422;SDS011;3244;42.708;23.288;2023-04-03T02:20:01;4.63;;;2.70;;
6422;SDS011;3244;42.708;23.288;2023-04-03T02:22:29;4.47;;;2.92;;
6422;SDS011;3244;42.708;23.288;2023-04-03T02:24:57;3.60;;;3.38;;
6422;SDS011;3244;42.708;23.288;2023-04-03T02:27:24;4.90;;;3.30;;
6422;SDS011;3244;42.708;23.288;2023-04-03T02:29:50;6.57;;;3.50;;
6422;SDS011;3244;42.708;23.288;2023-04-03T02:32:17;3.35;;;3.15;;
6422;SDS011;3244;42.708;23.288;2023-04-03T02:34:44;4.07;;;2.90;;
6422;SDS011;3244;42.708;23.288;2023-04-03T02:37:11;2.58;;;2.38;;
6422;SDS011;3244;42.708;23.288;2023-04-03T02:39:37;2.80;;;2.60;;
6422;SDS011;3244;42.708;23.288;2023-04-03T02:42:05;3.20;;;2.90;;
6422;SDS011;3244;42.708;23.288;2023-04-03T02:44:33;4.68;;;2.80;;
6422;SDS011;3244;42.708;23.288;2023-04-03T02:47:00;3.58;;;2.13;;
6422;SDS011;3244;42.708;23.288;2023-04-03T02:49:27;6.22;;;2.95;;
6422;SDS011;3244;42.708;23.288;2023-04-03T02:51:54;3.08;;;2.78;;
6422;SDS011;3244;42.708;23.288;2023-04-03T02:54:21;4.57;;;2.83;;
6422;SDS011;3244;42.708;23.288;2023-04-03T02:56:48;3.45;;;2.90;;
6422;SDS011;3244;42.708;23.288;2023-04-03T02:59:16;5.05;;;2.78;;
6422;SDS011;3244;42.708;23.288;2023-04-03T03:01:43;3.10;;;2.70;;
6422;SDS011;3244;42.708;23.288;2023-04-03T03:04:10;3.13;;;2.67;;
6422;SDS011;3244;42.708;23.288;2023-04-03T03:06:37;3.22;;;2.42;;
6422;SDS011;3244;42.708;23.288;2023-04-03T03:09:04;6.07;;;3.05;;
6422;SDS011;3244;42.708;23.288;2023-04-03T03:11:31;3.53;;;3.05;;
6422;SDS011;3244;42.708;23.288;2023-04-03T03:13:57;3.50;;;3.05;;
6422;SDS011;3244;42.708;23.288;2023-04-03T03:16:26;5.95;;;4.15;;
6422;SDS011;3244;42.708;23.288;2023-04-03T03:18:52;4.63;;;3.40;;
6422;SDS011;3244;42.708;23.288;2023-04-03T03:21:19;6.78;;;4.25;;
6422;SDS011;3244;42.708;23.288;2023-04-03T03:23:46;10.50;;;3.65;;
6422;SDS011;3244;42.708;23.288;2023-04-03T03:26:12;4.45;;;4.03;;
6422;SDS011;3244;42.708;23.288;2023-04-03T03:28:39;9.73;;;3.67;;
6422;SDS011;3244;42.708;23.288;2023-04-03T03:31:07;6.90;;;3.58;;
6422;SDS011;3244;42.708;23.288;2023-04-03T03:33:36;7.75;;;3.55;;
6422;SDS011;3244;42.708;23.288;2023-04-03T03:36:03;4.38;;;3.55;;
6422;SDS011;3244;42.708;23.288;2023-04-03T03:38:30;7.68;;;3.63;;
6422;SDS011;3244;42.708;23.288;2023-04-03T03:40:57;11.20;;;4.25;;
6422;SDS011;3244;42.708;23.288;2023-04-03T03:43:23;9.88;;;4.28;;
6422;SDS011;3244;42.708;23.288;2023-04-03T03:45:50;6.50;;;3.60;;
6422;SDS011;3244;42.708;23.288;2023-04-03T03:48:18;10.77;;;4.38;;
6422;SDS011;3244;42.708;23.288;2023-04-03T03:50:46;6.80;;;4.25;;
6422;SDS011;3244;42.708;23.288;2023-04-03T03:53:13;6.15;;;3.78;;
6422;SDS011;3244;42.708;23.288;2023-04-03T03:55:41;6.32;;;4.07;;
6422;SDS011;3244;42.708;23.288;2023-04-03T03:58:08;8.05;;;4.30;;
6422;SDS011;3244;42.708;23.288;2023-04-03T04:00:35;8.23;;;4.32;;
6422;SDS011;3244;42.708;23.288;2023-04-03T04:03:02;5.30;;;4.60;;
6422;SDS011;3244;42.708;23.288;2023-04-03T04:05:29;4.63;;;4.22;;
6422;SDS011;3244;42.708;23.288;2023-04-03T04:07:58;6.22;;;5.53;;
6422;SDS011;3244;42.708;23.288;2023-04-03T04:10:24;16.02;;;8.73;;
6422;SDS011;3244;42.708;23.288;2023-04-03T04:12:51;17.80;;;10.82;;
6422;SDS011;3244;42.708;23.288;2023-04-03T04:15:18;20.63;;;12.75;;
6422;SDS011;3244;42.708;23.288;2023-04-03T04:17:46;15.45;;;8.50;;
6422;SDS011;3244;42.708;23.288;2023-04-03T04:20:13;15.05;;;8.65;;
6422;SDS011;3244;42.708;23.288;2023-04-03T04:22:40;14.82;;;8.70;;
6422;SDS011;3244;42.708;23.288;2023-04-03T04:25:08;18.00;;;9.40;;
6422;SDS011;3244;42.708;23.288;2023-04-03T04:27:35;9.10;;;7.97;;
6422;SDS011;3244;42.708;23.288;2023-04-03T04:30:02;16.55;;;7.00;;
6422;SDS011;3244;42.708;23.288;2023-04-03T04:32:29;10.95;;;7.95;;
6422;SDS011;3244;42.708;23.288;2023-04-03T04:34:56;22.08;;;8.07;;
6422;SDS011;3244;42.708;23.288;2023-04-03T04:37:23;12.95;;;7.30;;
6422;SDS011;3244;42.708;23.288;2023-04-03T04:39:50;39.92;;;19.30;;
6422;SDS011;3244;42.708;23.288;2023-04-03T04:42:18;22.70;;;13.35;;
6422;SDS011;3244;42.708;23.288;2023-04-03T04:44:44;15.95;;;9.68;;
6422;SDS011;3244;42.708;23.288;2023-04-03T04:47:11;18.42;;;9.52;;
6422;SDS011;3244;42.708;23.288;2023-04-03T04:49:38;21.63;;;8.38;;
6422;SDS011;3244;42.708;23.288;2023-04-03T04:52:04;17.75;;;8.02;;
6422;SDS011;3244;42.708;23.288;2023-04-03T04:54:31;14.68;;;8.50;;
6422;SDS011;3244;42.708;23.288;2023-04-03T04:56:58;10.77;;;8.27;;
6422;SDS011;3244;42.708;23.288;2023-04-03T04:59:26;9.75;;;8.07;;
6422;SDS011;3244;42.708;23.288;2023-04-03T05:01:53;14.45;;;8.50;;
6422;SDS011;3244;42.708;23.288;2023-04-03T05:04:19;12.70;;;9.05;;
6422;SDS011;3244;42.708;23.288;2023-04-03T05:06:46;15.20;;;9.43;;
6422;SDS011;3244;42.708;23.288;2023-04-03T05:09:13;15.80;;;9.07;;
6422;SDS011;3244;42.708;23.288;2023-04-03T05:11:40;22.55;;;8.63;;
6422;SDS011;3244;42.708;23.288;2023-04-03T05:14:08;14.45;;;9.05;;
6422;SDS011;3244;42.708;23.288;2023-04-03T05:16:36;19.73;;;10.60;;
6422;SDS011;3244;42.708;23.288;2023-04-03T05:19:02;36.03;;;12.75;;
6422;SDS011;3244;42.708;23.288;2023-04-03T05:21:30;26.58;;;13.35;;
6422;SDS011;3244;42.708;23.288;2023-04-03T05:23:57;33.50;;;13.85;;
6422;SDS011;3244;42.708;23.288;2023-04-03T05:26:24;29.67;;;12.95;;
6422;SDS011;3244;42.708;23.288;2023-04-03T05:28:51;31.42;;;13.32;;
6422;SDS011;3244;42.708;23.288;2023-04-03T05:31:18;31.58;;;12.93;;
6422;SDS011;3244;42.708;23.288;2023-04-03T05:33:46;20.95;;;11.05;;
6422;SDS011;3244;42.708;23.288;2023-04-03T05:36:13;27.92;;;10.70;;
6422;SDS011;3244;42.708;23.288;2023-04-03T05:38:40;21.83;;;9.77;;
6422;SDS011;3244;42.708;23.288;2023-04-03T05:41:07;20.98;;;9.70;;
6422;SDS011;3244;42.708;23.288;2023-04-03T05:43:34;16.80;;;8.27;;
6422;SDS011;3244;42.708;23.288;2023-04-03T05:46:02;12.15;;;7.40;;
6422;SDS011;3244;42.708;23.288;2023-04-03T05:48:29;19.55;;;9.18;;
6422;SDS011;3244;42.708;23.288;2023-04-03T05:50:57;16.83;;;9.40;;
6422;SDS011;3244;42.708;23.288;2023-04-03T05:53:25;29.52;;;12.70;;
6422;SDS011;3244;42.708;23.288;2023-04-03T05:55:54;38.15;;;17.92;;
6422;SDS011;3244;42.708;23.288;2023-04-03T05:58:21;54.30;;;17.77;;
6422;SDS011;3244;42.708;23.288;2023-04-03T06:00:47;33.20;;;17.13;;
6422;SDS011;3244;42.708;23.288;2023-04-03T06:03:14;55.85;;;20.85;;
6422;SDS011;3244;42.708;23.288;2023-04-03T06:05:41;38.60;;;15.88;;
6422;SDS011;3244;42.708;23.288;2023-04-03T06:08:10;27.98;;;12.65;;
6422;SDS011;3244;42.708;23.288;2023-04-03T06:10:37;25.52;;;12.93;;
6422;SDS011;3244;42.708;23.288;2023-04-03T06:13:04;41.97;;;16.42;;
6422;SDS011;3244;42.708;23.288;2023-04-03T06:15:32;45.83;;;16.42;;
6422;SDS011;3244;42.708;23.288;2023-04-03T06:17:59;38.78;;;14.93;;
6422;SDS011;3244;42.708;23.288;2023-04-03T06:20:26;28.40;;;12.13;;
6422;SDS011;3244;42.708;23.288;2023-04-03T06:22:53;17.05;;;9.65;;
6422;SDS011;3244;42.708;23.288;2023-04-03T06:25:21;20.60;;;9.48;;
6422;SDS011;3244;42.708;23.288;2023-04-03T06:27:47;19.80;;;10.00;;
6422;SDS011;3244;42.708;23.288;2023-04-03T06:30:14;15.43;;;10.75;;
6422;SDS011;3244;42.708;23.288;2023-04-03T06:32:41;15.50;;;8.10;;
6422;SDS011;3244;42.708;23.288;2023-04-03T06:35:08;15.13;;;8.48;;
6422;SDS011;3244;42.708;23.288;2023-04-03T06:37:36;12.82;;;9.38;;
6422;SDS011;3244;42.708;23.288;2023-04-03T06:40:03;15.95;;;9.48;;
6422;SDS011;3244;42.708;23.288;2023-04-03T06:42:32;18.33;;;10.27;;
6422;SDS011;3244;42.708;23.288;2023-04-03T06:44:58;16.83;;;9.43;;
6422;SDS011;3244;42.708;23.288;2023-04-03T06:47:25;13.45;;;8.43;;
6422;SDS011;3244;42.708;23.288;2023-04-03T06:49:52;13.05;;;9.55;;
6422;SDS011;3244;42.708;23.288;2023-04-03T06:52:19;28.17;;;10.38;;
6422;SDS011;3244;42.708;23.288;2023-04-03T06:54:45;20.23;;;10.07;;
6422;SDS011;3244;42.708;23.288;2023-04-03T06:57:12;17.55;;;9.65;;
6422;SDS011;3244;42.708;23.288;2023-04-03T06:59:41;24.60;;;11.13;;
6422;SDS011;3244;42.708;23.288;2023-04-03T07:02:09;20.73;;;10.18;;
6422;SDS011;3244;42.708;23.288;2023-04-03T07:04:37;25.60;;;10.13;;
6422;SDS011;3244;42.708;23.288;2023-04-03T07:07:04;22.08;;;11.07;;
6422;SDS011;3244;42.708;23.288;2023-04-03T07:09:31;36.92;;;18.98;;
6422;SDS011;3244;42.708;23.288;2023-04-03T07:11:58;22.70;;;16.35;;
6422;SDS011;3244;42.708;23.288;2023-04-03T07:14:25;26.30;;;10.27;;
6422;SDS011;3244;42.708;23.288;2023-04-03T07:16:53;12.57;;;9.43;;
6422;SDS011;3244;42.708;23.288;2023-04-03T07:19:20;19.23;;;9.90;;
6422;SDS011;3244;42.708;23.288;2023-04-03T07:21:46;18.45;;;9.95;;
6422;SDS011;3244;42.708;23.288;2023-04-03T07:24:13;29.08;;;10.73;;
6422;SDS011;3244;42.708;23.288;2023-04-03T07:26:40;16.55;;;8.73;;
6422;SDS011;3244;42.708;23.288;2023-04-03T07:29:07;18.50;;;7.82;;
6422;SDS011;3244;42.708;23.288;2023-04-03T07:31:34;14.70;;;7.57;;
6422;SDS011;3244;42.708;23.288;2023-04-03T07:34:02;14.48;;;7.90;;
6422;SDS011;3244;42.708;23.288;2023-04-03T07:36:29;16.98;;;6.85;;
6422;SDS011;3244;42.708;23.288;2023-04-03T07:38:58;13.73;;;7.15;;
6422;SDS011;3244;42.708;23.288;2023-04-03T07:41:25;31.25;;;13.95;;
6422;SDS011;3244;42.708;23.288;2023-04-03T07:43:51;24.88;;;12.13;;
6422;SDS011;3244;42.708;23.288;2023-04-03T07:46:18;12.27;;;6.75;;
6422;SDS011;3244;42.708;23.288;2023-04-03T07:48:45;13.05;;;7.30;;
6422;SDS011;3244;42.708;23.288;2023-04-03T07:51:13;12.65;;;6.85;;
6422;SDS011;3244;42.708;23.288;2023-04-03T07:53:41;17.42;;;7.32;;
6422;SDS011;3244;42.708;23.288;2023-04-03T07:56:08;11.65;;;6.88;;
6422;SDS011;3244;42.708;23.288;2023-04-03T07:58:35;17.45;;;8.98;;
6422;SDS011;3244;42.708;23.288;2023-04-03T08:01:02;13.60;;;7.10;;
6422;SDS011;3244;42.708;23.288;2023-04-03T08:03:29;14.70;;;8.55;;
6422;SDS011;3244;42.708;23.288;2023-04-03T08:06:00;16.92;;;9.57;;
6422;SDS011;3244;42.708;23.288;2023-04-03T08:08:30;18.95;;;9.48;;
6422;SDS011;3244;42.708;23.288;2023-04-03T08:10:58;11.20;;;9.45;;
6422;SDS011;3244;42.708;23.288;2023-04-03T08:13:27;18.08;;;10.32;;
6422;SDS011;3244;42.708;23.288;2023-04-03T08:15:55;14.52;;;10.05;;
6422;SDS011;3244;42.708;23.288;2023-04-03T08:18:24;18.40;;;10.18;;
6422;SDS011;3244;42.708;23.288;2023-04-03T08:20:51;10.40;;;8.27;;
6422;SDS011;3244;42.708;23.288;2023-04-03T08:23:18;11.85;;;9.30;;
6422;SDS011;3244;42.708;23.288;2023-04-03T08:25:47;27.10;;;9.48;;
6422;SDS011;3244;42.708;23.288;2023-04-03T08:28:14;12.00;;;7.53;;
6422;SDS011;3244;42.708;23.288;2023-04-03T08:30:41;15.85;;;7.30;;
6422;SDS011;3244;42.708;23.288;2023-04-03T08:33:09;11.88;;;7.95;;
6422;SDS011;3244;42.708;23.288;2023-04-03T08:35:38;16.48;;;9.15;;
6422;SDS011;3244;42.708;23.288;2023-04-03T08:38:06;13.15;;;7.57;;
6422;SDS011;3244;42.708;23.288;2023-04-03T08:40:33;12.02;;;7.15;;
6422;SDS011;3244;42.708;23.288;2023-04-03T08:43:03;10.43;;;7.28;;
6422;SDS011;3244;42.708;23.288;2023-04-03T08:45:44;9.95;;;7.45;;
6422;SDS011;3244;42.708;23.288;2023-04-03T08:48:14;14.70;;;7.95;;
6422;SDS011;3244;42.708;23.288;2023-04-03T08:50:46;14.13;;;8.13;;
6422;SDS011;3244;42.708;23.288;2023-04-03T08:53:16;19.35;;;8.20;;
6422;SDS011;3244;42.708;23.288;2023-04-03T08:55:47;13.10;;;7.88;;
6422;SDS011;3244;42.708;23.288;2023-04-03T08:58:18;15.38;;;9.32;;
6422;SDS011;3244;42.708;23.288;2023-04-03T09:00:48;14.27;;;9.00;;
6422;SDS011;3244;42.708;23.288;2023-04-03T09:03:18;14.13;;;8.98;;
6422;SDS011;3244;42.708;23.288;2023-04-03T09:05:47;19.30;;;8.05;;
6422;SDS011;3244;42.708;23.288;2023-04-03T09:08:24;11.23;;;8.20;;
6422;SDS011;3244;42.708;23.288;2023-04-03T09:10:58;12.88;;;9.60;;
6422;SDS011;3244;42.708;23.288;2023-04-03T09:13:35;22.45;;;8.55;;
6422;SDS011;3244;42.708;23.288;2023-04-03T09:16:12;12.35;;;9.30;;
6422;SDS011;3244;42.708;23.288;2023-04-03T09:18:48;17.10;;;9.80;;
6422;SDS011;3244;42.708;23.288;2023-04-03T09:21:24;22.65;;;9.05;;
6422;SDS011;3244;42.708;23.288;2023-04-03T09:23:54;14.30;;;8.27;;
6422;SDS011;3244;42.708;23.288;2023-04-03T09:26:24;16.15;;;8.57;;
6422;SDS011;3244;42.708;23.288;2023-04-03T09:28:58;10.25;;;8.77;;
6422;SDS011;3244;42.708;23.288;2023-04-03T09:31:29;15.18;;;9.93;;
6422;SDS011;3244;42.708;23.288;2023-04-03T09:34:02;21.58;;;9.05;;
6422;SDS011;3244;42.708;23.288;2023-04-03T09:36:38;19.00;;;9.25;;
6422;SDS011;3244;42.708;23.288;2023-04-03T09:39:11;14.38;;;9.57;;
6422;SDS011;3244;42.708;23.288;2023-04-03T09:41:40;18.23;;;10.23;;
6422;SDS011;3244;42.708;23.288;2023-04-03T09:44:19;26.10;;;10.70;;
6422;SDS011;3244;42.708;23.288;2023-04-03T09:46:47;12.93;;;9.68;;
6422;SDS011;3244;42.708;23.288;2023-04-03T09:49:14;13.10;;;9.75;;
6422;SDS011;3244;42.708;23.288;2023-04-03T09:51:41;13.57;;;9.82;;
6422;SDS011;3244;42.708;23.288;2023-04-03T09:54:24;15.27;;;9.73;;
6422;SDS011;3244;42.708;23.288;2023-04-03T09:57:07;15.55;;;10.52;;
6422;SDS011;3244;42.708;23.288;2023-04-03T09:59:39;21.58;;;10.93;;
6422;SDS011;3244;42.708;23.288;2023-04-03T10:02:20;20.83;;;11.75;;
6422;SDS011;3244;42.708;23.288;2023-04-03T10:04:54;14.93;;;8.77;;
6422;SDS011;3244;42.708;23.288;2023-04-03T10:07:31;22.25;;;9.90;;
6422;SDS011;3244;42.708;23.288;2023-04-03T10:10:00;10.20;;;8.75;;
6422;SDS011;3244;42.708;23.288;2023-04-03T10:12:29;10.18;;;8.15;;
6422;SDS011;3244;42.708;23.288;2023-04-03T10:14:57;14.30;;;9.45;;
6422;SDS011;3244;42.708;23.288;2023-04-03T10:17:32;12.30;;;8.23;;
6422;SDS011;3244;42.708;23.288;2023-04-03T10:20:08;15.73;;;9.30;;
6422;SDS011;3244;42.708;23.288;2023-04-03T10:22:49;13.32;;;7.75;;
6422;SDS011;3244;42.708;23.288;2023-04-03T10:25:27;14.07;;;7.82;;
6422;SDS011;3244;42.708;23.288;2023-04-03T10:27:59;13.52;;;9.20;;
6422;SDS011;3244;42.708;23.288;2023-04-03T10:30:37;15.70;;;9.88;;
6422;SDS011;3244;42.708;23.288;2023-04-03T10:33:20;20.85;;;9.35;;
6422;SDS011;3244;42.708;23.288;2023-04-03T10:36:02;20.25;;;8.48;;
6422;SDS011;3244;42.708;23.288;2023-04-03T10:38:41;12.02;;;7.85;;
6422;SDS011;3244;42.708;23.288;2023-04-03T10:41:16;9.63;;;8.18;;
6422;SDS011;3244;42.708;23.288;2023-04-03T10:43:49;7.15;;;6.45;;
6422;SDS011;3244;42.708;23.288;2023-04-03T10:46:23;8.75;;;6.68;;
6422;SDS011;3244;42.708;23.288;2023-04-03T10:48:59;4.22;;;3.65;;
6422;SDS011;3244;42.708;23.288;2023-04-03T10:51:38;11.73;;;5.15;;
6422;SDS011;3244;42.708;23.288;2023-04-03T10:54:08;11.43;;;5.03;;
6422;SDS011;3244;42.708;23.288;2023-04-03T10:56:39;12.68;;;5.70;;
6422;SDS011;3244;42.708;23.288;2023-04-03T10:59:18;5.25;;;4.05;;
6422;SDS011;3244;42.708;23.288;2023-04-03T11:01:53;5.47;;;4.95;;
6422;SDS011;3244;42.708;23.288;2023-04-03T11:04:22;4.82;;;4.43;;
6422;SDS011;3244;42.708;23.288;2023-04-03T11:06:59;13.50;;;5.07;;
6422;SDS011;3244;42.708;23.288;2023-04-03T11:09:30;7.50;;;4.25;;
6422;SDS011;3244;42.708;23.288;2023-04-03T11:12:04;5.85;;;4.63;;
6422;SDS011;3244;42.708;23.288;2023-04-03T11:14:36;4.15;;;3.75;;
6422;SDS011;3244;42.708;23.288;2023-04-03T11:17:08;10.02;;;4.40;;
6422;SDS011;3244;42.708;23.288;2023-04-03T11:19:44;6.93;;;4.05;;
6422;SDS011;3244;42.708;23.288;2023-04-03T11:22:16;7.90;;;3.83;;
6422;SDS011;3244;42.708;23.288;2023-04-03T11:24:52;6.22;;;4.32;;
6422;SDS011;3244;42.708;23.288;2023-04-03T11:27:25;4.90;;;3.60;;
6422;SDS011;3244;42.708;23.288;2023-04-03T11:29:58;6.57;;;3.72;;
6422;SDS011;3244;42.708;23.288;2023-04-03T11:32:34;8.32;;;3.70;;
6422;SDS011;3244;42.708;23.288;2023-04-03T11:35:15;3.10;;;2.35;;
6422;SDS011;3244;42.708;23.288;2023-04-03T11:37:44;3.10;;;2.38;;
6422;SDS011;3244;42.708;23.288;2023-04-03T11:40:19;5.20;;;2.78;;
6422;SDS011;3244;42.708;23.288;2023-04-03T11:42:50;3.58;;;3.28;;
6422;SDS011;3244;42.708;23.288;2023-04-03T11:45:29;3.97;;;3.65;;
6422;SDS011;3244;42.708;23.288;2023-04-03T11:48:02;4.25;;;3.15;;
6422;SDS011;3244;42.708;23.288;2023-04-03T11:50:31;5.63;;;3.22;;
6422;SDS011;3244;42.708;23.288;2023-04-03T11:55:54;3.75;;;3.38;;
6422;SDS011;3244;42.708;23.288;2023-04-03T11:58:23;2.75;;;2.63;;
6422;SDS011;3244;42.708;23.288;2023-04-03T12:00:58;3.17;;;2.97;;
6422;SDS011;3244;42.708;23.288;2023-04-03T12:12:28;3.00;;;2.80;;
6422;SDS011;3244;42.708;23.288;2023-04-03T12:15:11;3.35;;;3.15;;
6422;SDS011;3244;42.708;23.288;2023-04-03T12:17:53;3.00;;;2.75;;
6422;SDS011;3244;42.708;23.288;2023-04-03T12:23:24;3.28;;;2.97;;
6422;SDS011;3244;42.708;23.288;2023-04-03T12:25:53;2.40;;;2.30;;
6422;SDS011;3244;42.708;23.288;2023-04-03T12:28:29;2.85;;;2.63;;
6422;SDS011;3244;42.708;23.288;2023-04-03T12:31:04;2.58;;;2.38;;
6422;SDS011;3244;42.708;23.288;2023-04-03T12:33:37;2.90;;;2.70;;
6422;SDS011;3244;42.708;23.288;2023-04-03T12:36:23;3.85;;;3.50;;
6422;SDS011;3244;42.708;23.288;2023-04-03T12:39:06;3.25;;;2.95;;
6422;SDS011;3244;42.708;23.288;2023-04-03T12:41:46;3.85;;;3.03;;
6422;SDS011;3244;42.708;23.288;2023-04-03T12:44:27;3.55;;;2.97;;
6422;SDS011;3244;42.708;23.288;2023-04-03T12:47:10;3.15;;;2.95;;
6422;SDS011;3244;42.708;23.288;2023-04-03T12:49:48;3.70;;;3.40;;
6422;SDS011;3244;42.708;23.288;2023-04-03T12:52:19;6.15;;;3.15;;
6422;SDS011;3244;42.708;23.288;2023-04-03T12:54:57;3.17;;;2.88;;
6422;SDS011;3244;42.708;23.288;2023-04-03T12:57:29;3.65;;;3.42;;
6422;SDS011;3244;42.708;23.288;2023-04-03T12:59:57;4.05;;;3.72;;
6422;SDS011;3244;42.708;23.288;2023-04-03T13:02:26;4.32;;;3.92;;
6422;SDS011;3244;42.708;23.288;2023-04-03T13:04:55;5.18;;;4.68;;
6422;SDS011;3244;42.708;23.288;2023-04-03T13:07:25;5.10;;;4.70;;
6422;SDS011;3244;42.708;23.288;2023-04-03T13:10:03;6.72;;;5.10;;
6422;SDS011;3244;42.708;23.288;2023-04-03T13:12:45;6.15;;;5.65;;
6422;SDS011;3244;42.708;23.288;2023-04-03T13:15:14;6.70;;;5.32;;
6422;SDS011;3244;42.708;23.288;2023-04-03T13:17:43;4.35;;;4.05;;
6422;SDS011;3244;42.708;23.288;2023-04-03T13:20:12;6.68;;;5.88;;
6422;SDS011;3244;42.708;23.288;2023-04-03T13:22:43;8.40;;;6.43;;
6422;SDS011;3244;42.708;23.288;2023-04-03T13:25:17;6.30;;;5.80;;
6422;SDS011;3244;42.708;23.288;2023-04-03T13:27:46;6.97;;;5.97;;
6422;SDS011;3244;42.708;23.288;2023-04-03T13:30:21;13.95;;;6.93;;
6422;SDS011;3244;42.708;23.288;2023-04-03T13:32:51;7.00;;;6.50;;
6422;SDS011;3244;42.708;23.288;2023-04-03T13:35:30;11.93;;;5.80;;
6422;SDS011;3244;42.708;23.288;2023-04-03T13:37:59;6.03;;;5.40;;
6422;SDS011;3244;42.708;23.288;2023-04-03T13:40:29;8.10;;;6.20;;
6422;SDS011;3244;42.708;23.288;2023-04-03T13:43:00;7.22;;;6.53;;
6422;SDS011;3244;42.708;23.288;2023-04-03T13:45:29;8.32;;;7.03;;
6422;SDS011;3244;42.708;23.288;2023-04-03T13:48:08;8.82;;;7.95;;
6422;SDS011;3244;42.708;23.288;2023-04-03T13:50:53;7.75;;;7.05;;
6422;SDS011;3244;42.708;23.288;2023-04-03T13:53:24;8.98;;;8.07;;
6422;SDS011;3244;42.708;23.288;2023-04-03T13:55:58;7.72;;;7.10;;
6422;SDS011;3244;42.708;23.288;2023-04-03T13:58:31;6.85;;;6.28;;
6422;SDS011;3244;42.708;23.288;2023-04-03T14:00:59;6.75;;;6.20;;
6422;SDS011;3244;42.708;23.288;2023-04-03T14:03:38;6.10;;;5.63;;
6422;SDS011;3244;42.708;23.288;2023-04-03T14:06:08;7.78;;;6.40;;
6422;SDS011;3244;42.708;23.288;2023-04-03T14:08:38;7.82;;;7.22;;
6422;SDS011;3244;42.708;23.288;2023-04-03T14:11:08;6.80;;;6.38;;
6422;SDS011;3244;42.708;23.288;2023-04-03T14:13:38;7.72;;;7.13;;
6422;SDS011;3244;42.708;23.288;2023-04-03T14:16:05;7.97;;;7.03;;
6422;SDS011;3244;42.708;23.288;2023-04-03T14:18:32;11.18;;;7.90;;
6422;SDS011;3244;42.708;23.288;2023-04-03T14:20:59;9.82;;;8.98;;
6422;SDS011;3244;42.708;23.288;2023-04-03T14:23:26;7.57;;;6.90;;
6422;SDS011;3244;42.708;23.288;2023-04-03T14:25:52;8.73;;;7.97;;
6422;SDS011;3244;42.708;23.288;2023-04-03T14:28:21;7.10;;;6.50;;
6422;SDS011;3244;42.708;23.288;2023-04-03T14:30:49;7.57;;;6.97;;
6422;SDS011;3244;42.708;23.288;2023-04-03T14:33:18;5.68;;;5.18;;
6422;SDS011;3244;42.708;23.288;2023-04-03T14:35:46;6.47;;;5.85;;
6422;SDS011;3244;42.708;23.288;2023-04-03T14:38:20;6.00;;;5.60;;
6422;SDS011;3244;42.708;23.288;2023-04-03T14:40:50;5.03;;;4.72;;
6422;SDS011;3244;42.708;23.288;2023-04-03T14:43:17;5.05;;;4.70;;
6422;SDS011;3244;42.708;23.288;2023-04-03T14:45:46;7.40;;;6.28;;
6422;SDS011;3244;42.708;23.288;2023-04-03T14:48:15;5.57;;;5.18;;
6422;SDS011;3244;42.708;23.288;2023-04-03T14:50:45;7.32;;;5.63;;
6422;SDS011;3244;42.708;23.288;2023-04-03T14:53:12;4.78;;;4.47;;
6422;SDS011;3244;42.708;23.288;2023-04-03T14:55:40;5.53;;;5.22;;
6422;SDS011;3244;42.708;23.288;2023-04-03T14:58:08;5.80;;;5.22;;
6422;SDS011;3244;42.708;23.288;2023-04-03T15:00:39;5.18;;;4.78;;
6422;SDS011;3244;42.708;23.288;2023-04-03T15:03:08;5.57;;;4.97;;
6422;SDS011;3244;42.708;23.288;2023-04-03T15:05:39;4.78;;;4.47;;
6422;SDS011;3244;42.708;23.288;2023-04-03T15:08:08;3.75;;;3.55;;
6422;SDS011;3244;42.708;23.288;2023-04-03T15:10:45;4.78;;;4.38;;
6422;SDS011;3244;42.708;23.288;2023-04-03T15:13:12;4.75;;;4.32;;
6422;SDS011;3244;42.708;23.288;2023-04-03T15:15:39;4.22;;;3.83;;
6422;SDS011;3244;42.708;23.288;2023-04-03T15:18:09;4.10;;;3.80;;
6422;SDS011;3244;42.708;23.288;2023-04-03T15:20:40;3.75;;;3.45;;
6422;SDS011;3244;42.708;23.288;2023-04-03T15:23:08;3.63;;;3.30;;
6422;SDS011;3244;42.708;23.288;2023-04-03T15:25:36;5.18;;;3.28;;
6422;SDS011;3244;42.708;23.288;2023-04-03T15:28:04;3.70;;;3.42;;